Time;durP1;ratioP1;P1;durP2;ratioP2;P2;SDS_P1;SDS_P2;PMS_P1;PMS_P2;Temp;Humidity;BMP_temperature;BMP_pressure;BME280_temperature;BME280_humidity;BME280_pressure;Samples;Min_cycle;Max_cycle;Signal;HPM_P1;HPM_P2
2022/12/31 00:01:43;;;;;;;1.13;0.80;;;12.30;99.90;;;;;;5036160;28;20182;-32
2022/12/31 00:04:09;;;;;;;1.80;0.80;;;12.30;99.90;;;;;;5052669;28;20173;-33
2022/12/31 00:06:35;;;;;;;1.10;0.90;;;12.30;99.90;;;;;;5035995;28;20174;-32
2022/12/31 00:09:06;;;;;;;0.87;0.83;;;12.30;99.90;;;;;;5052061;28;20335;-33
2022/12/31 00:11:34;;;;;;;0.93;0.83;;;12.30;99.90;;;;;;5053015;28;20189;-32
2022/12/31 00:14:00;;;;;;;0.97;0.80;;;12.30;99.90;;;;;;5035861;28;20196;-32
2022/12/31 00:16:35;;;;;;;0.97;0.87;;;12.30;99.90;;;;;;5035999;28;20181;-32
2022/12/31 00:19:02;;;;;;;1.10;0.80;;;12.30;99.90;;;;;;5053821;28;20226;-32
2022/12/31 00:21:31;;;;;;;1.00;0.80;;;12.30;99.90;;;;;;5052001;28;20344;-32
2022/12/31 00:23:57;;;;;;;1.60;0.60;;;12.30;99.90;;;;;;5052564;28;20231;-31
2022/12/31 00:26:25;;;;;;;0.80;0.60;;;12.30;99.90;;;;;;5052195;28;20259;-32
2022/12/31 00:28:53;;;;;;;0.60;0.60;;;12.30;99.90;;;;;;5042259;28;20287;-32
2022/12/31 00:31:22;;;;;;;0.70;0.70;;;12.30;99.90;;;;;;5049981;28;20178;-32
2022/12/31 00:33:48;;;;;;;0.83;0.50;;;12.30;99.90;;;;;;5051805;28;20176;-32
2022/12/31 00:36:18;;;;;;;0.80;0.80;;;12.30;99.90;;;;;;5051973;28;20271;-32
2022/12/31 00:38:45;;;;;;;1.13;1.03;;;12.30;99.90;;;;;;5051327;28;20201;-31
2022/12/31 00:41:12;;;;;;;1.20;0.97;;;12.20;99.90;;;;;;5035182;28;20224;-34
2022/12/31 00:43:38;;;;;;;0.60;0.60;;;12.20;99.90;;;;;;5053307;28;20661;-32
2022/12/31 00:46:06;;;;;;;0.90;0.60;;;12.20;99.90;;;;;;5051843;28;20169;-32
2022/12/31 00:48:32;;;;;;;0.70;0.70;;;12.20;99.90;;;;;;5051635;28;20209;-33
2022/12/31 00:50:59;;;;;;;1.23;0.80;;;12.20;99.90;;;;;;5034949;28;20295;-32
2022/12/31 00:53:25;;;;;;;0.70;0.70;;;12.20;99.90;;;;;;5051049;28;20189;-32
2022/12/31 00:55:57;;;;;;;1.87;1.00;;;12.20;99.90;;;;;;5052768;28;20192;-32
2022/12/31 00:58:23;;;;;;;0.70;0.60;;;12.20;99.90;;;;;;5044685;28;20298;-33
2022/12/31 01:00:49;;;;;;;0.70;0.63;;;12.30;99.90;;;;;;5043728;28;20287;-32
2022/12/31 01:03:15;;;;;;;0.80;0.80;;;12.30;99.90;;;;;;5051527;28;20713;-32
2022/12/31 01:05:40;;;;;;;1.23;0.70;;;12.30;99.90;;;;;;5034785;28;20188;-33
2022/12/31 01:08:06;;;;;;;1.70;0.80;;;12.30;99.90;;;;;;5051246;28;20184;-33
2022/12/31 01:13:17;;;;;;;0.70;0.70;;;12.30;99.90;;;;;;5052809;28;20208;-32
2022/12/31 01:15:42;;;;;;;0.83;0.70;;;12.30;99.90;;;;;;5034725;28;20189;-32
2022/12/31 01:18:09;;;;;;;1.77;0.70;;;12.30;99.90;;;;;;5034508;28;20186;-32
2022/12/31 01:20:36;;;;;;;1.87;0.90;;;12.40;99.90;;;;;;5050819;28;20259;-32
2022/12/31 01:23:03;;;;;;;1.13;0.60;;;12.40;99.90;;;;;;5034498;28;20561;-33
2022/12/31 01:25:28;;;;;;;0.93;0.60;;;12.40;99.90;;;;;;5034415;28;20178;-32
2022/12/31 01:27:54;;;;;;;0.90;0.77;;;12.40;99.90;;;;;;5045847;28;20199;-33
2022/12/31 01:30:20;;;;;;;0.70;0.70;;;12.30;99.90;;;;;;5043861;28;20269;-33
2022/12/31 01:32:45;;;;;;;0.90;0.80;;;12.30;99.90;;;;;;5050908;28;20199;-31
2022/12/31 01:35:11;;;;;;;1.10;0.70;;;12.30;99.90;;;;;;5050805;28;20189;-32
2022/12/31 01:37:37;;;;;;;1.70;1.17;;;12.20;99.90;;;;;;5034360;28;20244;-32
2022/12/31 01:40:04;;;;;;;4.77;1.60;;;12.20;99.90;;;;;;5051855;28;20226;-32
2022/12/31 01:42:30;;;;;;;4.33;2.43;;;12.20;99.90;;;;;;5034194;28;20181;-33
2022/12/31 01:44:56;;;;;;;1.70;1.27;;;12.20;99.90;;;;;;5033989;28;20253;-31
2022/12/31 01:47:34;;;;;;;1.17;0.83;;;12.10;99.90;;;;;;5051975;28;20288;-32
2022/12/31 01:50:25;;;;;;;0.70;0.50;;;12.00;99.90;;;;;;5051724;28;20208;-32
2022/12/31 01:52:54;;;;;;;1.13;0.70;;;12.10;99.90;;;;;;5051753;28;20197;-32
2022/12/31 01:55:27;;;;;;;0.63;0.60;;;12.10;99.90;;;;;;5051794;28;20243;-32
2022/12/31 01:57:58;;;;;;;0.70;0.70;;;12.10;99.90;;;;;;5045468;28;20178;-32
2022/12/31 02:00:23;;;;;;;0.60;0.60;;;12.00;99.90;;;;;;5042030;28;20246;-33
2022/12/31 02:02:49;;;;;;;1.50;0.60;;;12.00;99.90;;;;;;5050279;28;20220;-32
2022/12/31 02:05:24;;;;;;;0.93;0.60;;;12.00;99.90;;;;;;5050351;28;20189;-31
2022/12/31 02:07:52;;;;;;;1.67;0.60;;;12.00;99.90;;;;;;5049691;28;20241;-32
2022/12/31 02:10:18;;;;;;;1.10;0.70;;;12.00;99.90;;;;;;5050104;28;20311;-32
2022/12/31 02:12:44;;;;;;;1.70;0.77;;;12.00;99.90;;;;;;5050745;28;20289;-33
2022/12/31 02:15:10;;;;;;;0.73;0.70;;;12.00;99.90;;;;;;5050155;28;20183;-33
2022/12/31 02:18:04;;;;;;;2.30;0.60;;;11.90;99.90;;;;;;5051134;28;20259;-33
2022/12/31 02:20:49;;;;;;;1.30;0.70;;;12.00;99.90;;;;;;5049223;28;20220;-32
2022/12/31 02:23:44;;;;;;;0.80;0.60;;;12.00;99.90;;;;;;5050489;28;20200;-31
2022/12/31 02:26:09;;;;;;;0.77;0.60;;;12.10;99.90;;;;;;5042682;28;20200;-33
2022/12/31 02:28:41;;;;;;;0.70;0.70;;;12.10;99.90;;;;;;5032240;28;20230;-32
2022/12/31 02:31:23;;;;;;;0.60;0.60;;;12.10;99.90;;;;;;5012323;28;20193;-32
2022/12/31 02:33:58;;;;;;;1.87;0.80;;;12.10;99.90;;;;;;5005760;28;20189;-33
2022/12/31 02:36:28;;;;;;;3.83;0.80;;;12.20;99.90;;;;;;5013555;28;20186;-32
2022/12/31 02:38:56;;;;;;;0.60;0.60;;;12.20;99.90;;;;;;5013281;28;20194;-32
2022/12/31 02:44:24;;;;;;;2.50;0.80;;;12.30;99.90;;;;;;5031166;28;20217;-32
2022/12/31 02:47:06;;;;;;;1.00;0.70;;;12.30;99.90;;;;;;5030831;28;20181;-32
2022/12/31 02:49:37;;;;;;;1.63;0.90;;;12.20;99.90;;;;;;5013316;28;20202;-32
2022/12/31 02:52:26;;;;;;;0.60;0.60;;;12.30;99.90;;;;;;5013312;28;20194;-32
2022/12/31 02:55:16;;;;;;;1.43;0.70;;;12.30;99.90;;;;;;5029916;28;20189;-31
2022/12/31 02:58:12;;;;;;;2.20;0.80;;;12.30;99.90;;;;;;5032560;28;20173;-33
2022/12/31 03:03:41;;;;;;;1.57;1.27;;;12.30;99.90;;;;;;5050987;28;20193;-32
2022/12/31 03:06:09;;;;;;;3.27;1.20;;;12.40;99.90;;;;;;5049167;28;20186;-32
2022/12/31 03:09:11;;;;;;;1.20;1.00;;;12.40;99.90;;;;;;5050524;28;20222;-32
2022/12/31 03:14:07;;;;;;;1.60;0.73;;;12.40;99.90;;;;;;5019356;28;20197;-32
2022/12/31 03:16:33;;;;;;;0.90;0.73;;;12.50;99.90;;;;;;5049286;28;20181;-32
2022/12/31 03:27:29;;;;;;;0.87;0.70;;;12.80;99.90;;;;;;4985724;28;20264;-34
2022/12/31 03:29:55;;;;;;;0.80;0.57;;;12.80;99.90;;;;;;4983411;28;20746;-35
2022/12/31 03:32:20;;;;;;;2.00;0.80;;;12.90;99.90;;;;;;5005459;28;20190;-35
2022/12/31 03:34:46;;;;;;;0.70;0.70;;;12.90;99.90;;;;;;5036889;28;20185;-35
2022/12/31 03:37:12;;;;;;;1.73;0.80;;;12.90;99.90;;;;;;5053165;28;20189;-36
2022/12/31 03:39:38;;;;;;;1.43;0.70;;;12.90;99.90;;;;;;5036319;28;20213;-34
2022/12/31 03:42:04;;;;;;;0.83;0.80;;;12.90;99.90;;;;;;5052959;28;20697;-34
2022/12/31 03:44:29;;;;;;;0.70;0.70;;;13.00;99.90;;;;;;5052936;28;20178;-36
2022/12/31 03:46:55;;;;;;;0.70;0.70;;;13.00;99.90;;;;;;5053065;28;20178;-35
2022/12/31 03:49:21;;;;;;;0.80;0.60;;;13.00;99.90;;;;;;5036073;28;20288;-35
2022/12/31 03:51:46;;;;;;;0.87;0.60;;;13.00;99.90;;;;;;5036304;28;20182;-34
2022/12/31 03:54:12;;;;;;;1.03;0.80;;;13.00;99.90;;;;;;5052841;28;20182;-33
2022/12/31 03:56:38;;;;;;;0.50;0.50;;;13.10;99.90;;;;;;5052477;28;20186;-34
2022/12/31 03:59:04;;;;;;;0.73;0.70;;;13.10;99.90;;;;;;5041317;28;20220;-34
2022/12/31 04:01:31;;;;;;;1.13;0.57;;;13.10;99.90;;;;;;5052277;28;20248;-34
2022/12/31 04:03:57;;;;;;;1.23;0.60;;;13.20;99.90;;;;;;5053778;28;20193;-35
2022/12/31 04:06:23;;;;;;;0.60;0.60;;;13.20;99.90;;;;;;5052742;28;20176;-33
2022/12/31 04:08:48;;;;;;;0.60;0.60;;;13.20;99.90;;;;;;5052255;28;20277;-34
2022/12/31 04:11:14;;;;;;;0.73;0.60;;;13.30;99.90;;;;;;5035659;28;20196;-34
2022/12/31 04:13:40;;;;;;;1.00;0.70;;;13.30;99.90;;;;;;5052209;28;20185;-34
2022/12/31 04:16:06;;;;;;;0.60;0.60;;;13.40;99.90;;;;;;5035967;28;20239;-34
2022/12/31 04:18:31;;;;;;;1.53;0.60;;;13.40;99.90;;;;;;5053639;28;20276;-34
2022/12/31 04:21:02;;;;;;;1.23;0.67;;;13.40;99.90;;;;;;5035534;28;20202;-35
2022/12/31 04:23:27;;;;;;;0.60;0.60;;;13.50;99.90;;;;;;5051864;28;20170;-34
2022/12/31 04:25:53;;;;;;;1.00;0.80;;;13.50;99.90;;;;;;5053292;28;20185;-34
2022/12/31 04:28:19;;;;;;;0.50;0.50;;;13.50;99.90;;;;;;5029419;28;20208;-32
2022/12/31 04:30:45;;;;;;;0.63;0.63;;;13.60;99.90;;;;;;5045116;28;20181;-35
2022/12/31 04:33:11;;;;;;;1.67;0.73;;;13.60;99.90;;;;;;5035456;28;20205;-33
2022/12/31 04:35:36;;;;;;;1.10;0.67;;;13.60;99.90;;;;;;5053300;28;20186;-34
2022/12/31 04:38:02;;;;;;;0.77;0.50;;;13.60;99.90;;;;;;5052031;28;20178;-35
2022/12/31 04:40:28;;;;;;;1.53;0.73;;;13.50;99.90;;;;;;5053034;28;20197;-35
2022/12/31 04:42:54;;;;;;;0.83;0.60;;;13.50;99.90;;;;;;5051677;28;20205;-34
2022/12/31 04:45:20;;;;;;;0.57;0.57;;;13.50;99.90;;;;;;5052232;28;20245;-33
2022/12/31 04:47:45;;;;;;;0.90;0.90;;;13.40;99.90;;;;;;5035318;28;20213;-34
2022/12/31 04:50:11;;;;;;;1.30;1.20;;;13.40;99.90;;;;;;5034816;28;20304;-34
2022/12/31 04:52:37;;;;;;;1.10;0.90;;;13.40;99.90;;;;;;5051822;28;20178;-34
2022/12/31 04:55:03;;;;;;;1.43;0.90;;;13.30;99.90;;;;;;5051368;28;20209;-34
2022/12/31 04:57:29;;;;;;;1.00;0.90;;;13.30;99.90;;;;;;5028987;28;20209;-34
2022/12/31 04:59:55;;;;;;;0.70;0.70;;;13.20;99.90;;;;;;5042784;28;20579;-34
2022/12/31 05:02:20;;;;;;;1.37;0.70;;;13.20;99.90;;;;;;5051364;28;20190;-34
2022/12/31 05:04:46;;;;;;;0.93;0.60;;;13.10;99.90;;;;;;5051393;28;20210;-34
2022/12/31 05:07:12;;;;;;;0.70;0.70;;;13.10;99.90;;;;;;5051419;28;20178;-34
2022/12/31 05:09:38;;;;;;;0.80;0.80;;;13.10;99.90;;;;;;5052757;28;20201;-34
2022/12/31 05:12:04;;;;;;;0.43;0.43;;;13.00;99.90;;;;;;5052768;28;20185;-34
2022/12/31 05:14:29;;;;;;;1.20;0.90;;;13.00;99.90;;;;;;5052482;28;20182;-34
2022/12/31 05:16:57;;;;;;;1.20;0.80;;;13.00;99.90;;;;;;5034440;28;20256;-34
2022/12/31 05:19:22;;;;;;;1.17;0.80;;;13.00;99.90;;;;;;5034418;28;20197;-34
2022/12/31 05:22:27;;;;;;;0.50;0.50;;;13.00;99.90;;;;;;5050999;28;20206;-34
2022/12/31 05:24:34;;;;;;;2.17;0.77;;;12.90;99.90;;;;;;5052145;28;20186;-33
2022/12/31 05:27:02;;;;;;;0.67;0.67;;;13.00;99.90;;;;;;5048552;28;20190;-35
2022/12/31 05:29:28;;;;;;;1.30;1.20;;;12.90;99.90;;;;;;5025306;28;20253;-35
2022/12/31 05:31:53;;;;;;;1.50;0.70;;;13.00;99.90;;;;;;5010945;28;20186;-34
2022/12/31 05:34:19;;;;;;;0.97;0.93;;;13.00;99.90;;;;;;5011239;28;20183;-34
2022/12/31 05:36:45;;;;;;;1.87;1.00;;;13.00;99.90;;;;;;5027519;28;20188;-34
2022/12/31 05:39:11;;;;;;;0.83;0.73;;;13.00;99.90;;;;;;5010989;28;20203;-34
2022/12/31 05:41:36;;;;;;;1.40;1.10;;;12.90;99.90;;;;;;5011157;28;20292;-34
2022/12/31 05:44:02;;;;;;;1.33;1.20;;;13.00;99.90;;;;;;5012451;28;20190;-34
2022/12/31 05:46:28;;;;;;;0.80;0.80;;;13.00;99.90;;;;;;5012500;28;20267;-35
2022/12/31 05:48:54;;;;;;;1.13;1.03;;;13.00;99.90;;;;;;5010628;28;20206;-36
2022/12/31 05:51:19;;;;;;;1.40;0.93;;;13.00;99.90;;;;;;5012117;28;20191;-34
2022/12/31 05:53:45;;;;;;;1.23;0.70;;;12.90;99.90;;;;;;5011104;28;20195;-34
2022/12/31 05:56:11;;;;;;;1.73;0.90;;;12.90;99.90;;;;;;5011000;28;20182;-33
2022/12/31 05:58:37;;;;;;;0.87;0.87;;;12.90;99.90;;;;;;5035493;28;20372;-34
2022/12/31 06:01:02;;;;;;;2.00;0.90;;;12.90;99.90;;;;;;5045851;28;20208;-34
2022/12/31 06:03:30;;;;;;;0.70;0.60;;;12.90;99.90;;;;;;5033544;28;20213;-34
2022/12/31 06:05:56;;;;;;;0.77;0.77;;;12.90;99.90;;;;;;5050482;28;20184;-36
2022/12/31 06:08:22;;;;;;;0.80;0.80;;;12.90;99.90;;;;;;5050395;28;20678;-34
2022/12/31 06:10:48;;;;;;;1.03;0.93;;;12.90;99.90;;;;;;5051407;28;20189;-34
2022/12/31 06:13:14;;;;;;;1.43;0.80;;;12.90;99.90;;;;;;5050379;28;20181;-33
2022/12/31 06:15:40;;;;;;;0.80;0.70;;;12.90;99.90;;;;;;5049822;28;20197;-34
2022/12/31 06:18:06;;;;;;;1.03;0.70;;;12.90;99.90;;;;;;5033308;28;20208;-34
2022/12/31 06:20:32;;;;;;;0.70;0.60;;;12.90;99.90;;;;;;5049579;28;20225;-34
2022/12/31 06:22:58;;;;;;;0.60;0.60;;;12.90;99.90;;;;;;5051286;28;20174;-34
2022/12/31 06:25:24;;;;;;;0.60;0.60;;;12.90;99.90;;;;;;5050124;28;20182;-34
2022/12/31 06:27:50;;;;;;;0.70;0.70;;;12.90;99.90;;;;;;5043777;28;20227;-33
2022/12/31 06:30:16;;;;;;;0.70;0.70;;;12.90;99.90;;;;;;5042513;28;20233;-35
2022/12/31 06:32:42;;;;;;;0.90;0.70;;;13.00;99.90;;;;;;5051342;28;20650;-34
2022/12/31 06:35:08;;;;;;;0.60;0.60;;;13.10;99.90;;;;;;5049781;28;20205;-33
2022/12/31 06:37:34;;;;;;;0.63;0.63;;;13.20;99.90;;;;;;5033187;28;20190;-34
2022/12/31 06:40:00;;;;;;;0.70;0.70;;;13.20;99.90;;;;;;5049934;28;20267;-34
2022/12/31 06:42:32;;;;;;;0.90;0.80;;;13.20;99.90;;;;;;5048993;28;20166;-33
2022/12/31 06:44:58;;;;;;;0.60;0.60;;;13.20;99.90;;;;;;5032987;28;20228;-34
2022/12/31 06:47:24;;;;;;;2.00;0.80;;;13.30;99.90;;;;;;5051153;28;20178;-34
2022/12/31 06:49:51;;;;;;;0.67;0.63;;;13.30;99.90;;;;;;5049179;28;20252;-34
2022/12/31 06:52:17;;;;;;;0.80;0.70;;;13.40;99.90;;;;;;5049787;28;20188;-34
2022/12/31 06:54:43;;;;;;;0.70;0.57;;;13.50;99.90;;;;;;5032598;28;20185;-34
2022/12/31 06:57:09;;;;;;;0.90;0.60;;;13.50;99.90;;;;;;5044746;28;20186;-32
2022/12/31 06:59:35;;;;;;;0.77;0.70;;;13.50;99.90;;;;;;5039286;28;20221;-34
2022/12/31 07:02:11;;;;;;;0.60;0.60;;;13.50;99.90;;;;;;5049534;28;20174;-33
2022/12/31 07:05:15;;;;;;;0.87;0.80;;;13.50;99.90;;;;;;5032636;28;20214;-34
2022/12/31 07:07:54;;;;;;;0.93;0.70;;;13.50;99.90;;;;;;5048757;28;20182;-34
2022/12/31 07:10:23;;;;;;;1.27;1.10;;;13.50;99.90;;;;;;5050436;28;20181;-35
2022/12/31 07:13:06;;;;;;;1.47;0.93;;;13.50;99.90;;;;;;5032465;28;20201;-32
2022/12/31 07:16:10;;;;;;;1.47;0.80;;;13.40;99.90;;;;;;5049126;28;20665;-33
2022/12/31 07:18:46;;;;;;;1.10;1.00;;;13.40;99.90;;;;;;5023686;28;20291;-34
2022/12/31 07:21:15;;;;;;;1.63;1.00;;;13.40;99.90;;;;;;5048851;28;20205;-34
2022/12/31 07:23:42;;;;;;;0.70;0.70;;;13.40;99.90;;;;;;5049089;28;20193;-34
2022/12/31 07:26:07;;;;;;;1.07;0.70;;;13.40;99.90;;;;;;5050775;28;20184;-33
2022/12/31 07:28:55;;;;;;;0.80;0.80;;;13.40;99.90;;;;;;5040983;28;20201;-35
2022/12/31 07:31:26;;;;;;;1.17;0.80;;;13.40;99.90;;;;;;5045976;28;20178;-34
2022/12/31 07:33:58;;;;;;;1.70;0.83;;;13.40;99.90;;;;;;5032337;28;20220;-34
2022/12/31 07:36:39;;;;;;;0.73;0.73;;;13.40;99.90;;;;;;5049222;28;20224;-34
2022/12/31 07:39:09;;;;;;;0.70;0.70;;;13.40;99.90;;;;;;5048823;28;20198;-34
2022/12/31 07:41:59;;;;;;;0.70;0.70;;;13.40;99.90;;;;;;5049034;28;20209;-34
2022/12/31 07:44:37;;;;;;;1.33;0.60;;;13.50;99.90;;;;;;5049147;28;20183;-34
2022/12/31 07:47:11;;;;;;;0.77;0.77;;;13.50;99.90;;;;;;5048963;28;20193;-34
2022/12/31 07:49:41;;;;;;;0.80;0.70;;;13.50;99.90;;;;;;5050113;28;20186;-33
2022/12/31 07:52:07;;;;;;;2.27;1.17;;;13.60;99.90;;;;;;5048788;28;20185;-34
2022/12/31 07:54:33;;;;;;;0.90;0.80;;;13.60;99.90;;;;;;5032211;28;20182;-34
2022/12/31 07:56:59;;;;;;;1.10;0.90;;;13.60;99.90;;;;;;5046745;28;20236;-36
2022/12/31 07:59:49;;;;;;;1.53;1.20;;;13.60;99.90;;;;;;5037613;28;20207;-35
2022/12/31 08:03:08;;;;;;;2.43;0.90;;;13.70;99.90;;;;;;5032239;28;20193;-34
2022/12/31 08:05:50;;;;;;;0.90;0.90;;;13.70;99.90;;;;;;5027661;28;20186;-34
2022/12/31 08:08:35;;;;;;;0.80;0.77;;;13.80;99.90;;;;;;5027626;28;20291;-36
2022/12/31 08:11:18;;;;;;;1.23;0.80;;;13.80;99.90;;;;;;5045356;28;20201;-34
2022/12/31 08:13:44;;;;;;;0.83;0.80;;;13.90;99.90;;;;;;5049229;28;20257;-34
2022/12/31 08:16:12;;;;;;;1.20;0.90;;;13.90;99.90;;;;;;5055885;28;20209;-35
2022/12/31 08:18:38;;;;;;;1.57;0.70;;;13.90;99.90;;;;;;5048726;28;20243;-35
2022/12/31 08:21:37;;;;;;;0.80;0.50;;;13.90;99.90;;;;;;5052038;28;20214;-35
2022/12/31 08:24:46;;;;;;;0.73;0.70;;;14.00;99.90;;;;;;5052483;28;20263;-34
2022/12/31 08:27:32;;;;;;;1.17;0.90;;;14.10;99.90;;;;;;5027454;28;20198;-34
2022/12/31 08:30:04;;;;;;;1.47;0.80;;;14.10;99.90;;;;;;5029943;28;20206;-34
2022/12/31 08:32:42;;;;;;;2.03;0.90;;;14.20;99.90;;;;;;5013578;28;20230;-34
2022/12/31 08:35:25;;;;;;;1.80;0.80;;;14.30;99.90;;;;;;5032080;28;20293;-36
2022/12/31 08:37:57;;;;;;;0.80;0.80;;;14.30;99.90;;;;;;5033336;28;20257;-35
2022/12/31 08:40:34;;;;;;;1.43;0.80;;;14.40;99.90;;;;;;5032007;28;20207;-36
2022/12/31 08:43:16;;;;;;;2.70;1.00;;;14.40;99.90;;;;;;5015402;28;20194;-34
2022/12/31 08:45:52;;;;;;;1.67;1.07;;;14.50;99.90;;;;;;5032014;28;20186;-35
2022/12/31 08:48:29;;;;;;;1.40;0.80;;;14.60;99.90;;;;;;5033659;28;20222;-36
2022/12/31 08:50:55;;;;;;;1.47;1.30;;;14.50;99.90;;;;;;5031663;28;20189;-36
2022/12/31 08:53:22;;;;;;;0.90;0.90;;;14.50;99.90;;;;;;5032689;28;20259;-34
2022/12/31 08:55:54;;;;;;;1.33;0.90;;;14.50;99.90;;;;;;5032056;28;20191;-36
2022/12/31 08:58:31;;;;;;;1.73;1.10;;;14.50;99.90;;;;;;5039338;28;20206;-35
2022/12/31 09:00:58;;;;;;;1.13;0.80;;;14.40;99.90;;;;;;5044850;28;20197;-35
2022/12/31 09:03:29;;;;;;;1.50;0.90;;;14.50;99.90;;;;;;5052921;28;20181;-37
2022/12/31 09:06:04;;;;;;;2.17;1.10;;;14.40;99.90;;;;;;5035192;28;20177;-37
2022/12/31 09:08:53;;;;;;;1.20;0.90;;;14.40;99.90;;;;;;5034650;28;20201;-34
2022/12/31 09:11:30;;;;;;;1.33;0.90;;;14.40;99.90;;;;;;5034746;28;20178;-34
2022/12/31 09:14:14;;;;;;;1.33;0.80;;;14.40;99.90;;;;;;5051489;28;20284;-36
2022/12/31 09:17:00;;;;;;;1.43;0.90;;;14.50;99.90;;;;;;5034956;28;20181;-35
2022/12/31 09:19:26;;;;;;;0.90;0.80;;;14.60;99.90;;;;;;5052418;28;20631;-34
2022/12/31 09:21:52;;;;;;;0.93;0.83;;;14.60;99.90;;;;;;5051540;28;20231;-37
2022/12/31 09:24:18;;;;;;;1.40;0.87;;;14.70;99.90;;;;;;5034730;28;20264;-35
2022/12/31 09:27:14;;;;;;;1.33;0.80;;;14.80;99.90;;;;;;5051004;28;20266;-34
2022/12/31 09:30:00;;;;;;;1.40;1.00;;;14.90;99.90;;;;;;5041417;28;20210;-37
2022/12/31 09:32:57;;;;;;;1.20;0.87;;;15.00;99.90;;;;;;5051181;28;20174;-36
2022/12/31 09:35:39;;;;;;;2.00;0.90;;;15.10;99.90;;;;;;5051153;28;20178;-32
2022/12/31 09:38:11;;;;;;;2.77;0.90;;;15.30;99.90;;;;;;5051834;28;20264;-34
2022/12/31 09:40:55;;;;;;;1.87;1.30;;;15.40;99.90;;;;;;5051962;28;20249;-32
2022/12/31 09:43:53;;;;;;;0.97;0.80;;;15.50;99.90;;;;;;5052837;28;20257;-32
2022/12/31 09:46:36;;;;;;;1.53;0.87;;;15.60;99.90;;;;;;5050323;28;20269;-33
2022/12/31 09:49:24;;;;;;;0.87;0.83;;;15.70;99.90;;;;;;5033743;28;20194;-33
2022/12/31 09:52:23;;;;;;;0.80;0.70;;;15.70;99.90;;;;;;5051853;28;20276;-37
2022/12/31 09:55:11;;;;;;;1.57;0.80;;;15.70;99.90;;;;;;5050265;28;20186;-35
2022/12/31 09:57:55;;;;;;;1.27;0.90;;;15.80;99.90;;;;;;5043390;28;20194;-36
2022/12/31 10:00:38;;;;;;;1.90;0.83;;;15.80;99.90;;;;;;5076851;22;20576;-37
2022/12/31 10:03:24;;;;;;;1.47;0.80;;;15.90;99.90;;;;;;5050435;28;20214;-37
2022/12/31 10:05:59;;;;;;;0.90;0.88;;;16.00;99.90;;;;;;5051561;28;20194;-36
2022/12/31 10:08:28;;;;;;;0.85;0.80;;;16.00;99.90;;;;;;5033481;28;20250;-37
2022/12/31 10:10:58;;;;;;;0.75;0.75;;;16.00;99.90;;;;;;5033440;28;20185;-38
2022/12/31 10:13:46;;;;;;;2.75;2.35;;;16.10;99.90;;;;;;5050330;28;20184;-37
2022/12/31 10:16:52;;;;;;;1.52;1.42;;;16.20;99.90;;;;;;5033435;28;20185;-37
2022/12/31 10:19:59;;;;;;;1.73;1.00;;;16.30;99.90;;;;;;5033416;28;20201;-37
2022/12/31 10:22:41;;;;;;;1.53;0.90;;;16.40;99.90;;;;;;5049540;28;20261;-37
2022/12/31 10:25:44;;;;;;;1.10;1.00;;;16.50;99.90;;;;;;5049886;28;20178;-37
2022/12/31 10:28:10;;;;;;;1.73;0.90;;;16.50;99.90;;;;;;5057002;28;20181;-37
2022/12/31 10:30:46;;;;;;;1.30;1.00;;;16.60;99.90;;;;;;5058890;28;20208;-37
2022/12/31 10:33:20;;;;;;;1.20;1.10;;;16.70;99.90;;;;;;5051020;28;20223;-37
2022/12/31 10:36:04;;;;;;;1.33;1.10;;;16.70;99.90;;;;;;5049912;28;20185;-37
2022/12/31 10:38:47;;;;;;;1.17;0.90;;;16.70;99.90;;;;;;5049757;28;20213;-37
2022/12/31 10:41:21;;;;;;;1.02;0.80;;;16.70;99.90;;;;;;5049291;28;20681;-38
2022/12/31 10:44:03;;;;;;;1.10;1.00;;;16.70;99.90;;;;;;5050639;28;20197;-37
2022/12/31 10:46:50;;;;;;;1.75;0.90;;;16.80;99.90;;;;;;5049629;28;20208;-38
2022/12/31 10:49:36;;;;;;;1.48;1.00;;;16.80;99.90;;;;;;5049422;28;20200;-37
2022/12/31 10:52:32;;;;;;;1.40;0.88;;;16.80;99.90;;;;;;5050913;28;20178;-37
2022/12/31 10:55:35;;;;;;;1.00;0.95;;;16.90;99.90;;;;;;5032859;28;20189;-37
2022/12/31 10:58:19;;;;;;;0.95;0.70;;;16.90;99.90;;;;;;5056064;28;20173;-40
2022/12/31 11:01:05;;;;;;;0.80;0.80;;;16.90;99.90;;;;;;5053209;28;20249;-37
2022/12/31 11:03:44;;;;;;;1.08;0.88;;;17.00;99.90;;;;;;5070981;28;20201;-39
2022/12/31 11:06:42;;;;;;;1.80;0.90;;;17.00;99.90;;;;;;5070853;28;20176;-37
2022/12/31 11:10:02;;;;;;;2.08;0.80;;;17.10;99.90;;;;;;5066994;28;20274;-38
2022/12/31 11:13:12;;;;;;;0.93;0.70;;;17.20;99.90;;;;;;5027783;28;20183;-37
2022/12/31 11:15:51;;;;;;;1.35;0.90;;;17.30;99.90;;;;;;5049817;28;20268;-37
2022/12/31 11:18:46;;;;;;;2.03;1.00;;;17.40;99.90;;;;;;5069207;28;20649;-37
2022/12/31 11:21:28;;;;;;;1.33;1.20;;;17.40;99.90;;;;;;5069868;28;20209;-37
2022/12/31 11:24:01;;;;;;;2.70;1.73;;;17.50;99.90;;;;;;5070626;28;20181;-37
2022/12/31 11:27:19;;;;;;;2.80;1.55;;;17.50;99.90;;;;;;5070117;28;20170;-37
2022/12/31 11:30:20;;;;;;;1.48;1.27;;;17.50;99.90;;;;;;5000234;28;20199;-37
2022/12/31 11:32:58;;;;;;;3.22;0.90;;;17.60;99.90;;;;;;5049256;28;20186;-37
2022/12/31 11:36:05;;;;;;;3.25;1.10;;;17.60;99.90;;;;;;5048840;28;20216;-37
2022/12/31 11:38:50;;;;;;;1.05;0.85;;;17.60;99.90;;;;;;5050245;28;20173;-37
2022/12/31 11:41:24;;;;;;;1.95;1.20;;;17.70;99.90;;;;;;5048848;28;20213;-37
2022/12/31 11:44:13;;;;;;;1.40;1.30;;;17.70;99.90;;;;;;5050082;28;20189;-37
2022/12/31 11:46:57;;;;;;;1.52;0.93;;;17.70;99.90;;;;;;5032330;28;20178;-37
2022/12/31 11:49:41;;;;;;;2.03;1.00;;;17.80;99.90;;;;;;5050074;28;20240;-37
2022/12/31 11:52:30;;;;;;;1.08;0.95;;;17.80;99.90;;;;;;5032216;28;20221;-37
2022/12/31 11:55:33;;;;;;;1.25;0.93;;;17.90;99.90;;;;;;5052518;28;20189;-38
2022/12/31 11:58:10;;;;;;;0.95;0.77;;;18.00;99.90;;;;;;5059531;28;20176;-38
2022/12/31 12:00:37;;;;;;;1.55;1.10;;;18.10;99.90;;;;;;5065287;28;20294;-37
2022/12/31 12:03:05;;;;;;;1.65;1.02;;;18.10;99.90;;;;;;5072799;28;20314;-37
2022/12/31 12:05:33;;;;;;;3.00;1.30;;;18.20;99.90;;;;;;5072586;28;20223;-37
2022/12/31 12:08:00;;;;;;;1.45;1.13;;;18.30;99.90;;;;;;5073955;28;20173;-37
2022/12/31 12:10:35;;;;;;;2.28;1.48;;;18.30;99.90;;;;;;5073069;28;20208;-37
2022/12/31 12:13:27;;;;;;;1.50;0.88;;;18.30;99.90;;;;;;5055827;28;20197;-40
2022/12/31 12:15:57;;;;;;;2.63;1.63;;;18.30;99.90;;;;;;5055945;28;20660;-36
2022/12/31 12:18:30;;;;;;;4.55;2.08;;;18.30;99.90;;;;;;5073398;28;20184;-37
2022/12/31 12:21:04;;;;;;;2.83;1.95;;;18.40;99.90;;;;;;5072387;28;20221;-37
2022/12/31 12:23:31;;;;;;;3.33;2.25;;;18.30;99.90;;;;;;5071740;28;20272;-37
2022/12/31 12:25:57;;;;;;;1.05;0.90;;;18.30;99.90;;;;;;5073737;28;20176;-38
2022/12/31 12:28:27;;;;;;;1.02;0.70;;;18.30;99.90;;;;;;5065249;28;20181;-37
2022/12/31 12:31:04;;;;;;;0.88;0.85;;;18.40;99.90;;;;;;5066282;28;20249;-38
2022/12/31 12:33:43;;;;;;;1.08;0.80;;;18.40;99.90;;;;;;5072114;28;20185;-38
2022/12/31 12:36:12;;;;;;;2.70;0.80;;;18.40;99.90;;;;;;5071525;28;20173;-38
2022/12/31 12:38:39;;;;;;;0.98;0.77;;;18.40;99.90;;;;;;5070760;28;20189;-38
2022/12/31 12:41:10;;;;;;;0.70;0.70;;;18.40;99.90;;;;;;5071847;28;20197;-37
2022/12/31 12:43:36;;;;;;;0.80;0.80;;;18.40;99.90;;;;;;5072731;28;20177;-38
2022/12/31 12:46:17;;;;;;;1.10;1.00;;;18.40;99.90;;;;;;5072997;28;20274;-37
2022/12/31 12:48:46;;;;;;;1.40;1.23;;;18.40;99.90;;;;;;5071662;28;20189;-38
2022/12/31 12:51:30;;;;;;;1.10;1.00;;;18.40;99.90;;;;;;5071532;28;20188;-39
2022/12/31 12:54:05;;;;;;;1.27;1.10;;;18.30;99.90;;;;;;5055746;28;20280;-40
2022/12/31 12:56:43;;;;;;;0.95;0.80;;;18.30;99.90;;;;;;5071491;28;20207;-42
2022/12/31 12:59:33;;;;;;;2.25;0.88;;;18.20;99.90;;;;;;5056174;28;20221;-39
2022/12/31 13:02:20;;;;;;;0.85;0.85;;;18.10;99.90;;;;;;5031821;28;20286;-40
2022/12/31 13:05:01;;;;;;;0.82;0.82;;;18.10;99.90;;;;;;5030621;28;20183;-41
2022/12/31 13:07:38;;;;;;;1.25;1.15;;;18.00;99.90;;;;;;5015378;28;20182;-39
2022/12/31 13:10:24;;;;;;;2.00;1.70;;;18.00;99.90;;;;;;5031364;28;20206;-39
2022/12/31 13:13:14;;;;;;;1.95;1.58;;;18.00;99.90;;;;;;5015194;28;20179;-37
2022/12/31 13:15:49;;;;;;;1.95;1.50;;;17.90;99.90;;;;;;5032778;28;20182;-38
2022/12/31 13:18:41;;;;;;;2.00;1.70;;;17.90;99.90;;;;;;5031275;28;20187;-37
2022/12/31 13:21:41;;;;;;;1.85;1.58;;;17.80;99.90;;;;;;5014878;28;20210;-37
2022/12/31 13:24:32;;;;;;;3.03;1.48;;;17.70;99.90;;;;;;5031323;28;20187;-40
2022/12/31 13:27:23;;;;;;;1.60;1.50;;;17.70;99.90;;;;;;5017609;28;20186;-39
2022/12/31 13:29:51;;;;;;;1.23;1.13;;;17.60;99.90;;;;;;5060435;28;20212;-40
2022/12/31 13:32:26;;;;;;;1.42;1.20;;;17.60;99.90;;;;;;5034479;28;20177;-37
2022/12/31 13:34:59;;;;;;;1.60;1.30;;;17.50;99.90;;;;;;5050510;28;20189;-37
2022/12/31 13:37:36;;;;;;;1.75;1.45;;;17.50;99.90;;;;;;5050975;28;20182;-37
2022/12/31 13:40:26;;;;;;;1.50;1.40;;;17.50;99.90;;;;;;5050750;28;20776;-38
2022/12/31 13:43:01;;;;;;;2.88;1.55;;;17.40;99.90;;;;;;5051003;28;20178;-40
2022/12/31 13:45:37;;;;;;;2.55;1.40;;;17.40;99.90;;;;;;5034236;28;20185;-37